Terminal Aerodrome Forecast
Issued by NWS

Home | Current Version | Previous Version | Text Only | Print | Product List | Glossary On
Versions: 1 2 3 4 5 6 7 8 9 10 11 12 13 14 15 16 17 18 19 20 21
000
FTUS43 KDLH 201745
TAFHIB
TAF
KHIB 201745Z 2018/2118 12009KT 2SM -RA BR OVC003
      TEMPO 2018/2020 1 1/2SM -RA BR
     FM202200 13005KT 1SM -SNRA BR OVC004=

USA.gov is the U.S. government's official web portal to all federal, state and local government web resources and services.